Time;durP1;ratioP1;P1;durP2;ratioP2;P2;SDS_P1;SDS_P2;PMS_P1;PMS_P2;Temp;Humidity;BMP_temperature;BMP_pressure;BME280_temperature;BME280_humidity;BME280_pressure;Samples;Min_cycle;Max_cycle;Signal;HPM_P1;HPM_P2
2022/09/12 00:00:10;;;;;;;9.82;8.82;;;14.60;99.90;;;;;;5053122;27;20100;-85
2022/09/12 00:02:36;;;;;;;9.57;8.77;;;14.60;99.90;;;;;;5074603;27;20054;-84
2022/09/12 00:05:03;;;;;;;8.90;8.00;;;14.50;99.90;;;;;;5064863;27;20082;-85
2022/09/12 00:07:28;;;;;;;7.90;7.18;;;14.50;99.90;;;;;;5066206;28;20247;-81
2022/09/12 00:09:54;;;;;;;9.48;8.30;;;14.40;99.90;;;;;;5042811;28;20062;-84
2022/09/12 00:12:20;;;;;;;8.23;7.53;;;14.40;99.90;;;;;;5068554;28;20549;-85
2022/09/12 00:14:46;;;;;;;9.85;8.95;;;14.30;99.90;;;;;;5021231;28;20500;-85
2022/09/12 00:17:12;;;;;;;8.65;7.93;;;14.30;99.90;;;;;;5060623;28;20039;-85
2022/09/12 00:19:37;;;;;;;8.73;8.02;;;14.30;99.90;;;;;;5051407;28;21281;-84
2022/09/12 00:22:03;;;;;;;8.98;8.27;;;14.20;99.90;;;;;;5048266;28;20040;-84
2022/09/12 00:24:30;;;;;;;11.13;10.05;;;14.10;99.90;;;;;;5075272;28;20039;-85
2022/09/12 00:26:55;;;;;;;9.90;9.00;;;14.10;99.90;;;;;;5073319;27;20058;-84
2022/09/12 00:29:21;;;;;;;11.40;10.43;;;14.10;99.90;;;;;;5067836;27;20036;-85
2022/09/12 00:31:47;;;;;;;9.80;8.90;;;14.10;99.90;;;;;;5051606;28;20047;-84
2022/09/12 00:34:14;;;;;;;8.55;7.85;;;14.10;99.90;;;;;;5079167;28;20457;-84
2022/09/12 00:36:40;;;;;;;12.68;11.65;;;14.10;99.90;;;;;;5084446;28;20089;-84
2022/09/12 00:39:13;;;;;;;12.95;11.70;;;14.00;99.90;;;;;;5052109;28;20457;-85
2022/09/12 00:41:39;;;;;;;14.57;13.38;;;14.00;99.90;;;;;;5073709;28;20452;-86
2022/09/12 00:44:14;;;;;;;15.25;13.85;;;14.00;99.90;;;;;;5036422;28;20069;-85
2022/09/12 00:46:45;;;;;;;15.50;14.20;;;14.00;99.90;;;;;;5084784;27;20056;-84
2022/09/12 00:49:13;;;;;;;15.35;13.95;;;14.00;99.90;;;;;;5083929;28;20082;-85
2022/09/12 00:51:43;;;;;;;14.35;13.20;;;14.00;99.90;;;;;;5072511;28;20452;-85
2022/09/12 00:54:14;;;;;;;16.27;14.98;;;14.00;99.90;;;;;;5071606;28;20098;-84
2022/09/12 00:56:43;;;;;;;16.08;14.57;;;14.00;99.90;;;;;;5080680;28;20047;-84
2022/09/12 00:59:17;;;;;;;14.13;12.88;;;13.90;99.90;;;;;;5057013;27;20130;-85
2022/09/12 01:01:45;;;;;;;15.80;14.32;;;13.90;99.90;;;;;;5068147;28;20056;-85
2022/09/12 01:04:12;;;;;;;13.27;12.20;;;13.90;99.90;;;;;;5074849;27;20046;-85
2022/09/12 01:06:40;;;;;;;13.35;12.32;;;13.80;99.90;;;;;;5051632;28;20048;-85
2022/09/12 01:09:07;;;;;;;15.48;14.18;;;13.70;99.90;;;;;;5066736;28;20588;-85
2022/09/12 01:11:38;;;;;;;18.98;17.27;;;13.70;99.90;;;;;;5038544;27;20068;-85
2022/09/12 01:14:04;;;;;;;17.20;15.70;;;13.70;99.90;;;;;;5062243;28;20061;-85
2022/09/12 01:16:30;;;;;;;20.25;18.52;;;13.60;99.90;;;;;;5037258;28;20429;-85
2022/09/12 01:19:20;;;;;;;18.67;17.27;;;13.60;99.90;;;;;;5050113;28;20043;-85
2022/09/12 01:22:16;;;;;;;19.15;17.48;;;13.60;99.90;;;;;;5047201;28;20506;-85
2022/09/12 01:25:11;;;;;;;18.90;17.33;;;13.70;99.90;;;;;;5050875;28;20078;-85
2022/09/12 01:27:55;;;;;;;18.73;17.23;;;13.70;99.90;;;;;;5053843;28;20084;-85
2022/09/12 01:31:06;;;;;;;21.77;19.83;;;13.70;99.90;;;;;;5070969;28;20055;-86
2022/09/12 01:33:50;;;;;;;18.35;16.85;;;13.70;99.90;;;;;;5033875;28;20507;-86
2022/09/12 01:36:34;;;;;;;16.73;15.32;;;13.60;99.90;;;;;;5070973;28;20459;-86
2022/09/12 01:39:20;;;;;;;22.83;20.75;;;13.60;99.90;;;;;;5070984;28;21203;-86
2022/09/12 01:42:02;;;;;;;23.33;21.33;;;13.70;99.90;;;;;;5051398;28;20059;-86
2022/09/12 01:44:43;;;;;;;22.85;20.90;;;13.60;99.90;;;;;;5062242;28;20379;-85
2022/09/12 01:47:18;;;;;;;28.42;26.02;;;13.70;99.90;;;;;;5054765;28;20114;-85
2022/09/12 01:50:01;;;;;;;28.70;26.23;;;13.70;99.90;;;;;;5075070;28;20139;-84
2022/09/12 01:52:43;;;;;;;25.33;23.23;;;13.70;99.90;;;;;;5072542;28;20080;-86
2022/09/12 01:55:16;;;;;;;26.70;24.20;;;13.70;99.90;;;;;;5053204;28;20630;-86
2022/09/12 01:57:52;;;;;;;26.95;24.60;;;13.60;99.90;;;;;;5063826;28;21117;-86
2022/09/12 02:00:22;;;;;;;26.75;24.48;;;13.70;99.90;;;;;;5047451;28;20040;-87
2022/09/12 02:03:13;;;;;;;29.73;27.20;;;13.60;99.90;;;;;;5033531;28;20098;-87
2022/09/12 02:05:51;;;;;;;28.85;26.45;;;13.60;99.90;;;;;;5043020;28;20414;-79
2022/09/12 02:08:21;;;;;;;32.35;29.50;;;13.60;99.90;;;;;;5063363;28;20135;-79
2022/09/12 02:11:06;;;;;;;33.25;30.48;;;13.60;99.90;;;;;;5050209;28;20533;-79
2022/09/12 02:13:38;;;;;;;49.13;43.80;;;13.70;99.90;;;;;;5049407;28;20063;-87
2022/09/12 02:16:35;;;;;;;39.00;35.60;;;13.70;99.90;;;;;;5047925;28;20487;-87
2022/09/12 02:19:10;;;;;;;53.90;48.30;;;13.70;99.90;;;;;;5062534;28;20503;-87
2022/09/12 02:21:38;;;;;;;75.05;52.70;;;13.80;99.90;;;;;;5056280;28;20048;-86
2022/09/12 02:24:08;;;;;;;42.53;38.47;;;13.80;99.90;;;;;;5050783;28;20087;-86
2022/09/12 02:26:58;;;;;;;45.55;41.25;;;13.80;99.90;;;;;;5044883;28;20717;-87
2022/09/12 02:29:24;;;;;;;56.17;49.13;;;13.80;99.90;;;;;;5046246;28;20048;-87
2022/09/12 02:31:58;;;;;;;47.15;42.55;;;13.90;99.90;;;;;;5045752;28;20068;-87
2022/09/12 02:34:24;;;;;;;46.40;41.80;;;13.90;99.90;;;;;;5052042;28;20675;-86
2022/09/12 02:37:00;;;;;;;41.83;37.90;;;13.90;99.90;;;;;;5049435;28;20031;-87
2022/09/12 02:39:29;;;;;;;78.72;54.83;;;13.90;99.90;;;;;;5048496;28;20050;-86
2022/09/12 02:41:58;;;;;;;52.27;46.87;;;13.90;99.90;;;;;;5035598;28;20068;-86
2022/09/12 02:44:25;;;;;;;48.83;43.97;;;13.90;99.90;;;;;;5051716;28;20052;-86
2022/09/12 02:47:04;;;;;;;47.75;43.13;;;13.90;99.90;;;;;;5048807;28;20067;-87
2022/09/12 02:49:30;;;;;;;46.83;42.15;;;13.90;99.90;;;;;;5061808;28;20050;-87
2022/09/12 02:51:55;;;;;;;38.63;35.22;;;13.90;99.90;;;;;;5067797;28;20044;-87
2022/09/12 02:54:22;;;;;;;40.40;36.67;;;13.90;99.90;;;;;;5052537;28;20041;-87
2022/09/12 02:56:48;;;;;;;39.10;35.70;;;13.90;99.90;;;;;;5053155;28;20069;-87
2022/09/12 02:59:17;;;;;;;41.92;37.95;;;13.90;99.90;;;;;;5043474;28;20144;-87
2022/09/12 03:01:58;;;;;;;40.08;36.28;;;13.90;99.90;;;;;;5050856;28;20035;-87
2022/09/12 03:04:43;;;;;;;45.00;40.30;;;13.90;99.90;;;;;;5069064;28;20153;-87
2022/09/12 03:07:41;;;;;;;38.13;34.70;;;13.90;99.90;;;;;;5070135;28;20040;-87
2022/09/12 03:11:08;;;;;;;36.92;33.60;;;13.80;99.90;;;;;;5051960;28;20048;-86
2022/09/12 03:14:20;;;;;;;41.45;37.58;;;13.80;99.90;;;;;;4975414;28;20542;-87
2022/09/12 03:17:12;;;;;;;43.42;39.17;;;13.80;99.90;;;;;;5030839;28;20061;-87
2022/09/12 03:20:08;;;;;;;45.83;41.40;;;13.70;99.90;;;;;;5071035;28;20059;-87
2022/09/12 03:22:55;;;;;;;51.83;45.20;;;13.70;99.90;;;;;;5071996;28;20051;-87
2022/09/12 03:26:08;;;;;;;46.47;41.75;;;13.70;99.90;;;;;;5056405;28;20325;-86
2022/09/12 03:28:39;;;;;;;42.03;38.10;;;13.70;99.90;;;;;;4979789;28;20045;-86
2022/09/12 03:31:16;;;;;;;48.38;43.15;;;13.70;99.90;;;;;;4977939;28;20509;-86
2022/09/12 03:33:42;;;;;;;48.22;42.55;;;13.70;99.90;;;;;;5018364;28;20051;-87
2022/09/12 03:36:29;;;;;;;47.88;42.88;;;13.70;99.90;;;;;;5054195;28;20036;-87
2022/09/12 03:38:55;;;;;;;45.25;40.65;;;13.70;99.90;;;;;;5073240;28;20135;-86
2022/09/12 03:41:21;;;;;;;42.95;38.75;;;13.70;99.90;;;;;;5044050;28;20040;-88
2022/09/12 03:43:47;;;;;;;42.33;38.03;;;13.70;99.90;;;;;;5034602;28;20047;-87
2022/09/12 03:46:16;;;;;;;42.75;38.67;;;13.70;99.90;;;;;;5044387;28;20047;-87
2022/09/12 03:48:42;;;;;;;41.78;37.97;;;13.70;99.90;;;;;;5054634;28;20040;-87
2022/09/12 03:51:09;;;;;;;46.33;41.72;;;13.70;99.90;;;;;;5055985;28;20514;-88
2022/09/12 03:53:38;;;;;;;47.45;42.55;;;13.70;99.90;;;;;;5071187;28;20048;-86
2022/09/12 03:56:09;;;;;;;47.80;42.95;;;13.70;99.90;;;;;;5047976;28;20044;-87
2022/09/12 03:58:36;;;;;;;42.60;38.50;;;13.70;99.90;;;;;;5067520;28;20085;-87
2022/09/12 04:01:11;;;;;;;42.20;38.03;;;13.70;99.90;;;;;;5047028;28;20056;-88
2022/09/12 04:03:44;;;;;;;42.13;38.03;;;13.70;99.90;;;;;;5050069;28;20044;-88
2022/09/12 04:06:13;;;;;;;44.65;40.08;;;13.60;99.90;;;;;;5050944;28;20036;-88
2022/09/12 04:08:40;;;;;;;46.17;41.03;;;13.60;99.90;;;;;;5071480;28;20563;-87
2022/09/12 04:11:15;;;;;;;40.67;36.85;;;13.60;99.90;;;;;;5043454;28;20388;-88
2022/09/12 04:13:43;;;;;;;42.50;38.47;;;13.60;99.90;;;;;;5068559;28;20032;-87
2022/09/12 04:16:13;;;;;;;43.55;39.30;;;13.60;99.90;;;;;;5043330;28;20044;-87
2022/09/12 04:18:39;;;;;;;42.38;38.25;;;13.60;99.90;;;;;;5068180;28;20044;-87
2022/09/12 04:21:07;;;;;;;42.25;38.03;;;13.60;99.90;;;;;;5059887;28;20144;-87
2022/09/12 04:23:33;;;;;;;38.63;35.13;;;13.60;99.90;;;;;;5050440;28;20451;-88
2022/09/12 04:26:01;;;;;;;37.28;33.88;;;13.50;99.90;;;;;;5059234;28;20047;-88
2022/09/12 04:28:31;;;;;;;39.03;35.33;;;13.50;99.90;;;;;;5054624;28;20040;-87
2022/09/12 04:31:00;;;;;;;;;;;13.50;99.90;;;;;;5059407;28;20048;-87
2022/09/12 04:33:26;;;;;;;38.08;34.67;;;13.50;99.90;;;;;;5070834;28;20185;-87
2022/09/12 04:35:52;;;;;;;42.55;38.60;;;13.40;99.90;;;;;;5025541;28;21171;-87
2022/09/12 04:38:17;;;;;;;41.17;37.28;;;13.40;99.90;;;;;;5038966;28;20040;-86
2022/09/12 04:40:43;;;;;;;43.65;39.45;;;13.40;99.90;;;;;;5051284;28;20131;-87
2022/09/12 04:43:09;;;;;;;39.38;35.85;;;13.40;99.90;;;;;;5041388;28;20411;-87
2022/09/12 04:45:35;;;;;;;47.13;41.88;;;13.40;99.90;;;;;;5053167;28;20171;-89
2022/09/12 04:48:01;;;;;;;46.17;41.53;;;13.40;99.90;;;;;;5052079;28;20048;-88
2022/09/12 04:50:26;;;;;;;41.28;37.40;;;13.40;99.90;;;;;;5067265;28;20094;-88
2022/09/12 04:52:53;;;;;;;42.88;38.80;;;13.40;99.90;;;;;;5032500;28;20052;-87
2022/09/12 04:55:21;;;;;;;47.63;42.80;;;13.40;99.90;;;;;;5067042;28;20055;-88
2022/09/12 04:57:47;;;;;;;65.10;52.50;;;13.40;99.90;;;;;;5049428;28;20051;-87
2022/09/12 05:00:14;;;;;;;48.80;43.53;;;13.40;99.90;;;;;;5048767;28;20071;-88
2022/09/12 05:02:40;;;;;;;49.95;44.95;;;13.40;99.90;;;;;;5045959;28;20365;-88
2022/09/12 05:05:07;;;;;;;51.92;46.35;;;13.40;99.90;;;;;;5042232;28;20044;-88
2022/09/12 05:07:33;;;;;;;54.15;47.13;;;13.50;99.90;;;;;;5044508;28;20071;-87
2022/09/12 05:10:03;;;;;;;50.08;45.08;;;13.50;99.90;;;;;;5066999;28;20116;-88
2022/09/12 05:12:29;;;;;;;50.25;45.00;;;13.40;99.90;;;;;;5024301;28;20134;-87
2022/09/12 05:14:56;;;;;;;84.18;59.10;;;13.60;99.90;;;;;;5067670;28;20831;-87
2022/09/12 05:17:22;;;;;;;55.10;49.33;;;13.60;99.90;;;;;;5051137;28;20730;-87
2022/09/12 05:19:48;;;;;;;56.50;50.22;;;13.70;99.90;;;;;;5066653;28;20321;-78
2022/09/12 05:22:14;;;;;;;60.60;53.00;;;13.70;99.90;;;;;;5044587;28;20339;-78
2022/09/12 05:24:42;;;;;;;66.57;55.08;;;13.80;99.90;;;;;;5039378;28;20051;-78
2022/09/12 05:27:08;;;;;;;88.57;61.63;;;13.90;99.90;;;;;;5023510;28;20410;-78
2022/09/12 05:29:34;;;;;;;60.40;53.53;;;13.90;99.90;;;;;;5048966;28;20810;-87
2022/09/12 05:32:04;;;;;;;58.35;51.22;;;13.90;99.90;;;;;;5031671;28;20330;-87
2022/09/12 05:34:29;;;;;;;81.20;61.13;;;14.00;99.90;;;;;;5031408;28;20078;-86
2022/09/12 05:36:55;;;;;;;59.53;53.00;;;14.00;99.90;;;;;;5021066;28;20150;-87
2022/09/12 05:39:21;;;;;;;82.07;62.15;;;14.00;99.90;;;;;;5046859;28;20629;-87
2022/09/12 05:41:47;;;;;;;60.28;53.47;;;14.00;99.90;;;;;;5053823;28;20059;-85
2022/09/12 05:44:13;;;;;;;65.90;54.88;;;14.00;99.90;;;;;;5054576;28;20044;-88
2022/09/12 05:46:44;;;;;;;63.97;54.75;;;14.10;99.90;;;;;;5046837;28;20048;-86
2022/09/12 05:49:11;;;;;;;60.85;53.20;;;14.10;99.90;;;;;;5066509;28;20148;-86
2022/09/12 05:51:40;;;;;;;82.93;61.78;;;14.10;99.90;;;;;;5058005;28;20057;-87
2022/09/12 05:54:10;;;;;;;65.82;55.90;;;14.20;99.90;;;;;;5044951;28;20569;-86
2022/09/12 05:56:39;;;;;;;77.80;60.03;;;14.20;99.90;;;;;;5041516;28;20728;-84
2022/09/12 05:59:16;;;;;;;100.13;65.72;;;14.20;99.90;;;;;;5046897;28;20055;-85
2022/09/12 06:01:43;;;;;;;72.00;58.47;;;14.20;99.90;;;;;;5052195;28;20050;-79
2022/09/12 06:04:10;;;;;;;56.72;50.50;;;14.20;99.90;;;;;;5030349;28;20051;-86
2022/09/12 06:06:43;;;;;;;63.85;53.15;;;14.20;99.90;;;;;;5056763;28;20247;-86
2022/09/12 06:09:14;;;;;;;69.63;56.35;;;14.30;99.90;;;;;;5054529;28;20626;-86
2022/09/12 06:11:41;;;;;;;67.82;56.15;;;14.20;99.90;;;;;;5044608;28;20073;-86
2022/09/12 06:14:09;;;;;;;76.65;59.13;;;14.20;99.90;;;;;;5053007;28;20043;-85
2022/09/12 06:16:36;;;;;;;68.47;56.60;;;14.20;99.90;;;;;;5031763;28;20455;-86
2022/09/12 06:19:26;;;;;;;63.97;53.78;;;14.30;99.90;;;;;;5047395;28;20126;-86
2022/09/12 06:21:52;;;;;;;63.92;52.20;;;14.30;99.90;;;;;;5045135;28;20395;-86
2022/09/12 06:24:20;;;;;;;54.92;48.40;;;14.20;99.90;;;;;;5067283;28;20055;-86
2022/09/12 06:26:47;;;;;;;61.95;53.42;;;14.30;99.90;;;;;;5064652;28;20129;-84
2022/09/12 06:29:17;;;;;;;71.50;56.17;;;14.30;99.90;;;;;;5065876;28;20036;-86
2022/09/12 06:31:44;;;;;;;;;;;14.40;99.90;;;;;;5038937;28;20043;-86
2022/09/12 06:34:13;;;;;;;65.38;54.03;;;14.40;99.90;;;;;;5063883;28;19943;-85
2022/09/12 06:36:41;;;;;;;67.90;56.08;;;14.40;99.90;;;;;;5037548;28;20044;-85
2022/09/12 06:39:17;;;;;;;67.88;57.13;;;14.50;99.90;;;;;;5047319;28;20498;-86
2022/09/12 06:41:44;;;;;;;60.70;53.50;;;14.50;99.90;;;;;;5032955;28;20048;-85
2022/09/12 06:44:16;;;;;;;63.03;52.38;;;14.50;99.90;;;;;;5039649;28;20037;-86
2022/09/12 06:46:42;;;;;;;58.85;51.75;;;14.50;99.90;;;;;;5047532;28;20039;-86
2022/09/12 06:49:07;;;;;;;62.92;54.47;;;14.60;99.90;;;;;;5048420;28;20053;-84
2022/09/12 06:51:36;;;;;;;65.68;55.08;;;14.60;99.90;;;;;;5020422;28;20579;-84
2022/09/12 06:54:03;;;;;;;58.03;51.20;;;14.60;99.90;;;;;;5029998;28;20060;-85
2022/09/12 06:56:29;;;;;;;58.25;50.90;;;14.60;99.90;;;;;;5046338;28;21113;-85
2022/09/12 06:58:57;;;;;;;65.30;55.85;;;14.70;99.90;;;;;;5020052;28;20044;-84
2022/09/12 07:01:26;;;;;;;67.50;54.78;;;14.70;99.90;;;;;;5055385;28;20056;-85
2022/09/12 07:03:58;;;;;;;74.90;57.67;;;14.80;99.90;;;;;;5063067;28;20170;-86
2022/09/12 07:06:30;;;;;;;63.58;53.13;;;14.80;99.90;;;;;;5064227;28;20047;-85
2022/09/12 07:09:03;;;;;;;60.55;51.25;;;14.80;99.90;;;;;;5046636;28;20048;-86
2022/09/12 07:11:35;;;;;;;65.38;54.15;;;14.90;99.90;;;;;;5043973;28;20131;-84
2022/09/12 07:14:13;;;;;;;59.28;51.75;;;14.90;99.90;;;;;;5041649;28;20046;-85
2022/09/12 07:16:40;;;;;;;56.38;48.13;;;14.90;99.90;;;;;;5041016;28;20043;-84
2022/09/12 07:19:09;;;;;;;69.82;53.78;;;14.90;99.90;;;;;;5039691;28;20047;-85
2022/09/12 07:21:38;;;;;;;56.85;50.03;;;15.00;99.90;;;;;;5053404;28;20086;-84
2022/09/12 07:24:07;;;;;;;58.03;50.00;;;15.00;99.90;;;;;;5049412;28;20045;-84
2022/09/12 07:26:33;;;;;;;59.15;50.45;;;15.00;99.90;;;;;;5050652;28;20101;-85
2022/09/12 07:28:59;;;;;;;68.00;53.90;;;15.10;99.90;;;;;;5066550;28;20036;-85
2022/09/12 07:31:26;;;;;;;58.30;50.05;;;15.10;99.90;;;;;;5039293;28;20140;-85
2022/09/12 07:33:52;;;;;;;59.33;49.63;;;15.20;99.90;;;;;;5032036;28;20066;-84
2022/09/12 07:36:21;;;;;;;57.92;51.60;;;15.20;99.90;;;;;;5041605;28;20048;-81
2022/09/12 07:38:47;;;;;;;60.03;49.92;;;15.30;99.90;;;;;;5047686;28;20036;-84
2022/09/12 07:41:22;;;;;;;58.58;50.28;;;15.40;99.90;;;;;;5047173;28;20193;-84
2022/09/12 07:43:52;;;;;;;52.67;46.17;;;15.40;99.90;;;;;;5050612;28;20040;-84
2022/09/12 07:46:18;;;;;;;53.85;46.10;;;15.60;99.90;;;;;;5045167;28;20048;-85
2022/09/12 07:48:47;;;;;;;55.22;48.25;;;15.70;99.90;;;;;;5041687;28;20071;-85
2022/09/12 07:51:13;;;;;;;50.67;44.85;;;15.80;99.90;;;;;;5046713;28;20418;-84
2022/09/12 07:53:44;;;;;;;50.05;44.58;;;15.80;99.90;;;;;;5049779;28;20181;-84
2022/09/12 07:56:11;;;;;;;52.83;44.95;;;15.90;99.90;;;;;;5041096;28;20051;-85
2022/09/12 07:58:39;;;;;;;49.67;43.75;;;15.90;99.90;;;;;;5054276;28;20048;-84
2022/09/12 08:01:11;;;;;;;47.47;42.05;;;15.90;99.90;;;;;;5069930;28;20067;-83
2022/09/12 08:03:38;;;;;;;45.60;40.58;;;15.90;99.90;;;;;;5044755;28;20053;-84
2022/09/12 08:06:09;;;;;;;51.55;44.53;;;15.90;99.90;;;;;;5053887;28;20079;-84
2022/09/12 08:08:36;;;;;;;45.58;40.63;;;16.00;99.90;;;;;;5051976;28;20113;-84
2022/09/12 08:11:06;;;;;;;47.35;41.15;;;16.00;99.90;;;;;;5047730;28;20041;-84
2022/09/12 08:13:33;;;;;;;46.42;40.65;;;16.00;99.90;;;;;;5050295;28;20080;-84
2022/09/12 08:16:01;;;;;;;43.20;38.55;;;16.10;99.90;;;;;;5044420;28;20048;-84
2022/09/12 08:18:27;;;;;;;41.38;36.88;;;16.10;99.90;;;;;;5049668;28;21171;-83
2022/09/12 08:20:58;;;;;;;43.88;38.47;;;16.20;99.90;;;;;;5023980;28;20081;-84
2022/09/12 08:23:24;;;;;;;;;;;16.20;99.90;;;;;;5034472;28;20071;-83
2022/09/12 08:25:51;;;;;;;43.88;38.90;;;16.20;99.90;;;;;;5050294;28;19924;-83
2022/09/12 08:28:16;;;;;;;43.13;38.63;;;16.30;99.90;;;;;;5032460;28;20221;-83
2022/09/12 08:30:42;;;;;;;40.42;36.00;;;16.40;99.90;;;;;;5037884;28;20587;-84
2022/09/12 08:33:08;;;;;;;45.85;40.80;;;16.50;99.90;;;;;;5065585;28;20072;-82
2022/09/12 08:35:34;;;;;;;44.25;38.22;;;16.60;99.90;;;;;;5025643;28;20080;-83
2022/09/12 08:38:00;;;;;;;42.72;38.13;;;16.60;99.90;;;;;;5026514;28;20122;-84
2022/09/12 08:40:28;;;;;;;41.67;37.03;;;16.70;99.90;;;;;;5050749;28;20724;-83
2022/09/12 08:43:28;;;;;;;42.85;37.40;;;16.80;99.90;;;;;;5036157;28;20045;-83
2022/09/12 08:46:03;;;;;;;43.67;38.85;;;16.90;99.90;;;;;;5040403;28;20543;-82
2022/09/12 08:48:29;;;;;;;44.92;40.00;;;17.00;99.90;;;;;;5065192;28;20055;-84
2022/09/12 08:50:58;;;;;;;42.85;38.22;;;17.10;99.90;;;;;;5049771;28;20355;-83
2022/09/12 08:53:28;;;;;;;46.63;41.45;;;17.20;99.90;;;;;;5016087;28;20251;-83
2022/09/12 08:55:58;;;;;;;;;;;17.30;99.90;;;;;;5051096;28;20052;-83
2022/09/12 08:58:27;;;;;;;48.03;42.83;;;17.50;99.90;;;;;;5036272;28;19966;-83
2022/09/12 09:01:22;;;;;;;48.38;41.95;;;17.50;99.90;;;;;;5050907;28;20407;-82
2022/09/12 09:04:27;;;;;;;50.92;44.35;;;17.60;99.90;;;;;;5046927;28;20051;-83
2022/09/12 09:07:08;;;;;;;46.63;41.53;;;17.80;99.90;;;;;;5044243;28;20040;-83
2022/09/12 09:09:58;;;;;;;50.47;44.55;;;17.90;99.90;;;;;;5048511;28;20670;-82
2022/09/12 09:12:43;;;;;;;47.10;41.97;;;17.90;99.90;;;;;;5047963;28;20054;-82
2022/09/12 09:15:10;;;;;;;52.58;43.47;;;18.00;99.90;;;;;;5046091;28;20076;-82
2022/09/12 09:17:47;;;;;;;54.00;46.38;;;18.10;99.90;;;;;;5046665;28;20438;-82
2022/09/12 09:20:31;;;;;;;52.05;45.80;;;18.10;99.90;;;;;;5049512;28;20060;-83
2022/09/12 09:23:26;;;;;;;50.30;44.10;;;18.20;99.90;;;;;;5045348;28;20053;-82
2022/09/12 09:25:58;;;;;;;52.78;46.22;;;18.30;99.90;;;;;;5044673;28;20471;-83
2022/09/12 09:28:45;;;;;;;51.17;45.60;;;18.40;99.90;;;;;;5047550;28;20143;-82
2022/09/12 09:31:18;;;;;;;49.30;43.90;;;18.60;99.90;;;;;;5069287;28;20135;-82
2022/09/12 09:33:47;;;;;;;48.53;43.33;;;18.70;99.90;;;;;;5048729;28;20092;-82
2022/09/12 09:36:28;;;;;;;54.60;47.83;;;18.80;99.90;;;;;;5046910;28;20040;-82
2022/09/12 09:39:34;;;;;;;54.35;47.38;;;18.80;99.90;;;;;;5047314;28;20036;-82
2022/09/12 09:42:26;;;;;;;52.13;43.95;;;18.90;99.90;;;;;;5050822;28;20051;-82
2022/09/12 09:44:55;;;;;;;53.90;46.15;;;19.00;99.90;;;;;;5052160;28;20048;-82
2022/09/12 09:47:20;;;;;;;54.80;46.47;;;19.20;99.90;;;;;;5064606;28;20040;-82
2022/09/12 09:49:46;;;;;;;53.17;44.03;;;19.30;99.90;;;;;;5027712;28;20092;-82
2022/09/12 09:52:16;;;;;;;52.67;43.25;;;19.50;99.90;;;;;;5039053;28;20051;-82
2022/09/12 09:54:56;;;;;;;47.80;42.15;;;19.60;99.90;;;;;;5058353;27;20040;-82
2022/09/12 09:57:34;;;;;;;47.30;40.58;;;19.90;99.90;;;;;;5051204;28;20047;-82
2022/09/12 10:00:22;;;;;;;48.50;40.95;;;20.00;99.90;;;;;;5049552;28;20040;-82
2022/09/12 10:03:11;;;;;;;41.20;36.78;;;20.10;99.90;;;;;;5051880;28;20427;-82
2022/09/12 10:05:51;;;;;;;41.28;36.78;;;20.10;99.90;;;;;;5072587;28;20531;-82
2022/09/12 10:08:27;;;;;;;40.30;35.90;;;20.20;99.90;;;;;;5068299;28;20521;-81
2022/09/12 10:11:21;;;;;;;36.72;32.85;;;20.40;99.90;;;;;;5050466;27;20719;-82
2022/09/12 10:13:52;;;;;;;34.85;31.00;;;20.60;99.90;;;;;;5060985;28;20372;-82
2022/09/12 10:16:31;;;;;;;33.58;29.90;;;20.80;99.90;;;;;;5069124;28;20048;-81
2022/09/12 10:18:59;;;;;;;31.30;26.98;;;20.90;99.90;;;;;;5070764;27;20097;-82
2022/09/12 10:21:28;;;;;;;28.63;25.63;;;21.00;99.90;;;;;;5062867;28;20127;-82
2022/09/12 10:24:02;;;;;;;31.80;28.50;;;21.10;99.90;;;;;;5070070;28;20040;-82
2022/09/12 10:26:35;;;;;;;29.75;26.55;;;21.30;99.90;;;;;;5051246;28;20103;-81
2022/09/12 10:29:22;;;;;;;32.97;29.58;;;21.40;99.90;;;;;;5050487;28;20105;-81
2022/09/12 10:31:53;;;;;;;30.70;27.52;;;21.50;99.90;;;;;;5056576;28;20540;-80
2022/09/12 10:34:31;;;;;;;27.85;25.05;;;21.70;99.90;;;;;;5068628;28;20123;-82
2022/09/12 10:37:44;;;;;;;30.08;26.92;;;21.80;99.90;;;;;;5050483;28;20042;-81
2022/09/12 10:40:23;;;;;;;27.45;24.65;;;21.90;99.90;;;;;;5037755;28;20390;-84
2022/09/12 10:42:57;;;;;;;30.93;27.70;;;21.90;99.90;;;;;;5067487;28;20088;-80
2022/09/12 10:45:23;;;;;;;30.55;27.30;;;21.90;99.90;;;;;;5067801;28;20309;-82
2022/09/12 10:47:51;;;;;;;29.85;26.63;;;21.90;99.90;;;;;;5050639;28;20056;-80
2022/09/12 10:50:40;;;;;;;29.45;26.42;;;22.00;99.90;;;;;;5054873;28;20071;-81
2022/09/12 10:53:24;;;;;;;28.38;25.40;;;22.00;99.90;;;;;;5072127;27;20330;-81
2022/09/12 10:56:02;;;;;;;25.00;22.40;;;22.10;99.90;;;;;;5066009;28;20052;-81
2022/09/12 10:58:39;;;;;;;27.17;24.38;;;22.20;99.90;;;;;;5047907;28;21173;-81
2022/09/12 11:01:24;;;;;;;26.15;23.40;;;22.30;99.90;;;;;;5047538;28;20137;-80
2022/09/12 11:04:09;;;;;;;23.42;21.02;;;22.40;99.90;;;;;;5051199;28;20519;-80
2022/09/12 11:07:09;;;;;;;24.50;21.88;;;22.50;99.90;;;;;;5067553;28;20877;-81
2022/09/12 11:10:04;;;;;;;20.25;18.10;;;22.70;99.90;;;;;;5022263;28;20558;-82
2022/09/12 11:12:42;;;;;;;24.40;21.80;;;22.70;99.90;;;;;;5067836;28;20135;-82
2022/09/12 11:15:39;;;;;;;20.35;18.20;;;22.90;99.90;;;;;;5066911;28;20364;-83
2022/09/12 11:18:32;;;;;;;19.33;16.92;;;22.90;99.90;;;;;;5064096;28;20389;-82
2022/09/12 11:21:22;;;;;;;19.25;17.25;;;23.00;99.90;;;;;;5056824;28;20036;-82
2022/09/12 11:24:07;;;;;;;19.15;17.10;;;23.00;99.90;;;;;;5064941;28;20063;-82
2022/09/12 11:26:51;;;;;;;18.42;16.40;;;23.10;99.90;;;;;;5046826;28;20052;-83
2022/09/12 11:29:27;;;;;;;22.38;18.58;;;23.20;99.90;;;;;;5048340;28;20143;-82
2022/09/12 11:32:03;;;;;;;21.48;19.10;;;23.30;99.90;;;;;;5058260;28;20059;-82
2022/09/12 11:34:53;;;;;;;22.35;19.40;;;23.30;99.90;;;;;;5074071;28;20502;-84
2022/09/12 11:37:48;;;;;;;20.13;17.77;;;23.40;99.90;;;;;;5049853;28;20081;-83
2022/09/12 11:40:54;;;;;;;21.60;19.42;;;23.50;99.90;;;;;;5046857;28;20503;-82
2022/09/12 11:43:39;;;;;;;19.20;17.02;;;23.30;99.90;;;;;;5047848;28;20047;-82
2022/09/12 11:46:12;;;;;;;18.58;16.67;;;23.10;99.90;;;;;;5043291;28;20495;-79
2022/09/12 11:48:47;;;;;;;17.00;15.02;;;23.00;99.90;;;;;;5052831;28;20491;-80
2022/09/12 11:51:35;;;;;;;15.25;13.32;;;23.00;99.90;;;;;;5050884;28;20271;-80
2022/09/12 11:54:10;;;;;;;16.35;13.30;;;22.90;99.90;;;;;;5052121;28;20109;-80
2022/09/12 11:56:48;;;;;;;16.33;13.63;;;23.00;99.90;;;;;;5062994;28;20060;-81
2022/09/12 11:59:39;;;;;;;15.50;13.90;;;23.10;99.90;;;;;;5067420;28;20515;-83
2022/09/12 12:02:11;;;;;;;15.45;12.68;;;23.20;99.90;;;;;;5066936;28;20044;-81
2022/09/12 12:04:46;;;;;;;14.77;13.27;;;23.30;99.90;;;;;;5052503;28;20047;-79
2022/09/12 12:07:15;;;;;;;16.38;14.68;;;23.40;99.90;;;;;;5041521;28;20049;-80
2022/09/12 12:09:48;;;;;;;14.65;13.15;;;23.50;99.90;;;;;;5038117;28;20518;-80
2022/09/12 12:12:26;;;;;;;16.50;14.68;;;23.60;99.90;;;;;;5049925;28;20039;-79
2022/09/12 12:14:54;;;;;;;16.40;14.50;;;23.70;99.90;;;;;;5048028;28;20514;-80
2022/09/12 12:17:24;;;;;;;16.55;14.90;;;23.80;99.30;;;;;;5040832;28;20502;-80
2022/09/12 12:20:02;;;;;;;15.18;13.52;;;23.80;99.50;;;;;;5037825;28;20040;-80
2022/09/12 12:22:28;;;;;;;13.90;12.38;;;23.90;99.90;;;;;;5059527;28;20036;-79
2022/09/12 12:25:01;;;;;;;13.65;12.07;;;23.90;98.00;;;;;;5042473;28;20097;-79
2022/09/12 12:27:50;;;;;;;15.77;11.85;;;23.90;96.80;;;;;;5043841;28;20094;-79
2022/09/12 12:30:32;;;;;;;14.13;12.63;;;23.90;97.80;;;;;;5066310;28;20583;-80
2022/09/12 12:33:12;;;;;;;12.82;11.52;;;23.90;96.50;;;;;;5051683;28;20294;-79
2022/09/12 12:36:00;;;;;;;17.80;13.55;;;23.90;95.20;;;;;;5049434;28;20048;-81
2022/09/12 12:38:37;;;;;;;16.75;12.82;;;23.80;94.60;;;;;;5049693;28;20040;-80
2022/09/12 12:41:22;;;;;;;13.13;11.40;;;23.80;96.70;;;;;;5047109;28;20131;-79
2022/09/12 12:43:55;;;;;;;12.27;9.93;;;23.80;94.80;;;;;;5064863;28;20041;-80
2022/09/12 12:46:27;;;;;;;13.57;10.73;;;23.70;94.40;;;;;;5046951;28;20270;-79
2022/09/12 12:49:09;;;;;;;12.55;11.18;;;23.80;96.10;;;;;;5040400;28;20314;-80
2022/09/12 12:52:03;;;;;;;11.45;10.25;;;23.90;95.70;;;;;;5045789;28;20780;-79
2022/09/12 12:54:49;;;;;;;10.85;8.50;;;24.00;96.10;;;;;;5049891;28;20089;-80
2022/09/12 12:57:16;;;;;;;9.25;8.32;;;24.10;95.70;;;;;;5059474;28;20048;-80
2022/09/12 13:00:01;;;;;;;8.40;7.53;;;24.10;95.70;;;;;;5063466;28;20396;-79
2022/09/12 13:02:27;;;;;;;9.00;7.85;;;24.10;95.00;;;;;;5071801;28;20043;-80